Time;durP1;ratioP1;P1;durP2;ratioP2;P2;SDS_P1;SDS_P2;PMS_P1;PMS_P2;Temp;Humidity;BMP_temperature;BMP_pressure;BME280_temperature;BME280_humidity;BME280_pressure;Samples;Min_cycle;Max_cycle;Signal;HPM_P1;HPM_P2
2023/05/06 00:01:51;;;;;;;12.10;6.00;;;;;;;7.78;60.18;101296.65;105331;279;38356;-73
2023/05/06 00:04:31;;;;;;;6.90;5.90;;;;;;;7.74;60.01;101292.70;105307;279;39658;-72
2023/05/06 00:07:08;;;;;;;8.70;5.80;;;;;;;7.68;59.74;101291.37;105782;279;38723;-72
2023/05/06 00:09:44;;;;;;;8.70;5.50;;;;;;;7.64;59.49;101289.70;105367;279;39865;-72
2023/05/06 00:12:21;;;;;;;9.20;5.70;;;;;;;7.59;59.24;101286.10;105343;279;39914;-73
2023/05/06 00:14:56;;;;;;;7.80;5.00;;;;;;;7.49;59.14;101285.52;105320;279;39696;-72
2023/05/06 00:17:31;;;;;;;7.80;5.30;;;;;;;7.45;58.90;101287.64;105795;279;38274;-72
2023/05/06 00:20:09;;;;;;;7.80;4.60;;;;;;;7.41;58.58;101284.89;105389;279;38398;-72
2023/05/06 00:22:47;;;;;;;7.40;4.70;;;;;;;7.38;58.14;101285.27;105379;279;38231;-72
2023/05/06 00:25:22;;;;;;;7.10;4.40;;;;;;;7.32;57.67;101287.77;105380;279;38296;-71
2023/05/06 00:27:59;;;;;;;7.00;4.30;;;;;;;7.28;57.45;101284.69;105387;279;38301;-71
2023/05/06 00:30:34;;;;;;;5.30;4.00;;;;;;;7.23;57.28;101288.90;105241;279;38234;-72
2023/05/06 00:33:09;;;;;;;6.90;4.40;;;;;;;7.18;56.80;101287.38;105374;279;38520;-72
2023/05/06 00:35:44;;;;;;;7.50;4.60;;;;;;;7.15;56.75;101288.27;105344;279;38231;-72
2023/05/06 00:38:19;;;;;;;7.60;4.20;;;;;;;7.11;56.51;101287.10;105359;279;38397;-72
2023/05/06 00:40:55;;;;;;;9.30;4.80;;;;;;;7.08;56.34;101288.17;105345;279;38531;-71
2023/05/06 00:43:30;;;;;;;7.90;4.50;;;;;;;7.03;56.21;101287.70;105373;283;38245;-71
2023/05/06 00:46:07;;;;;;;7.40;4.50;;;;;;;7.00;56.10;101293.27;105242;279;39712;-71
2023/05/06 00:48:47;;;;;;;6.40;4.10;;;;;;;6.94;55.78;101289.68;105382;279;39664;-73
2023/05/06 00:51:23;;;;;;;8.80;4.40;;;;;;;6.89;55.59;101294.58;105350;279;39397;-73
2023/05/06 00:53:59;;;;;;;5.90;4.10;;;;;;;6.84;55.58;101291.84;105371;287;39520;-72
2023/05/06 00:56:35;;;;;;;6.10;4.20;;;;;;;6.80;55.44;101291.70;105708;279;38303;-73
2023/05/06 00:59:12;;;;;;;7.70;4.30;;;;;;;6.76;55.43;101289.47;105354;279;38370;-72
2023/05/06 01:01:48;;;;;;;4.80;3.30;;;;;;;6.72;55.36;101290.20;105345;279;39615;-71
2023/05/06 01:04:22;;;;;;;8.40;4.30;;;;;;;6.68;55.31;101292.82;105361;279;39399;-72
2023/05/06 01:07:04;;;;;;;4.90;3.50;;;;;;;6.64;55.31;101297.36;105795;279;38397;-72
2023/05/06 01:09:47;;;;;;;6.60;4.00;;;;;;;6.62;55.25;101294.61;105394;279;38800;-72
2023/05/06 01:12:27;;;;;;;6.80;3.40;;;;;;;6.58;55.21;101298.80;105393;279;39515;-72
2023/05/06 01:15:11;;;;;;;6.30;3.80;;;;;;;6.54;55.12;101297.61;105807;279;38557;-71
2023/05/06 01:17:50;;;;;;;6.00;3.80;;;;;;;6.51;55.10;101300.92;105784;279;39414;-71
2023/05/06 01:20:25;;;;;;;7.00;3.80;;;;;;;6.48;55.08;101303.02;105379;279;38519;-72
2023/05/06 01:23:01;;;;;;;5.40;3.70;;;;;;;6.44;54.99;101303.38;105381;279;38499;-72
2023/05/06 01:25:38;;;;;;;4.40;3.50;;;;;;;6.41;54.94;101309.13;105389;279;38221;-72
2023/05/06 01:28:14;;;;;;;7.50;3.50;;;;;;;6.38;54.90;101314.35;105775;279;38916;-72
2023/05/06 01:30:58;;;;;;;5.90;3.50;;;;;;;6.37;54.80;101322.67;105291;279;38395;-71
2023/05/06 01:33:44;;;;;;;5.00;3.70;;;;;;;6.34;54.80;101328.59;105389;279;38506;-71
2023/05/06 01:36:27;;;;;;;6.90;3.70;;;;;;;6.32;54.73;101328.07;104609;279;1026252;-71
2023/05/06 01:39:12;;;;;;;6.70;3.70;;;;;;;6.30;54.65;101329.45;105243;279;39470;-72
2023/05/06 01:41:51;;;;;;;5.00;3.30;;;;;;;6.29;54.59;101328.09;105285;279;38348;-72
2023/05/06 01:44:33;;;;;;;6.60;3.40;;;;;;;6.27;54.51;101327.74;105355;279;38456;-71
2023/05/06 01:47:13;;;;;;;5.60;4.00;;;;;;;6.25;54.45;101327.06;105357;279;38237;-71
2023/05/06 01:49:50;;;;;;;4.90;3.60;;;;;;;6.23;54.35;101323.27;105803;279;38225;-72
2023/05/06 01:52:32;;;;;;;5.90;3.40;;;;;;;6.19;54.28;101319.98;105375;276;38782;-72
2023/05/06 01:55:10;;;;;;;5.00;3.30;;;;;;;6.16;54.28;101316.19;105798;279;38540;-71
2023/05/06 01:57:48;;;;;;;7.80;3.60;;;;;;;6.14;54.34;101315.52;105363;279;39415;-71
2023/05/06 02:00:27;;;;;;;5.80;3.60;;;;;;;6.10;54.22;101314.50;105313;279;38368;-72
2023/05/06 02:03:01;;;;;;;4.20;3.30;;;;;;;6.06;54.27;101313.46;105338;279;39407;-73
2023/05/06 02:05:36;;;;;;;4.00;3.30;;;;;;;6.04;54.27;101319.02;105341;283;39724;-71
2023/05/06 02:08:11;;;;;;;6.10;3.60;;;;;;;6.01;54.25;101320.23;105378;279;38262;-71
2023/05/06 02:10:47;;;;;;;8.30;3.80;;;;;;;5.99;54.19;101317.31;105346;279;38665;-72
2023/05/06 02:13:23;;;;;;;6.20;3.70;;;;;;;5.97;54.34;101316.45;105778;279;38693;-72
2023/05/06 02:15:58;;;;;;;5.50;3.50;;;;;;;5.94;54.26;101313.67;105346;279;38832;-71
2023/05/06 02:18:40;;;;;;;6.80;3.20;;;;;;;5.91;54.32;101304.67;105334;279;38461;-71
2023/05/06 02:21:15;;;;;;;5.10;3.60;;;;;;;5.89;54.28;101304.49;105328;279;38286;-72
2023/05/06 02:23:53;;;;;;;5.30;3.40;;;;;;;5.87;54.37;101309.17;105789;279;38267;-71
2023/05/06 02:26:30;;;;;;;6.60;3.70;;;;;;;5.85;54.31;101308.67;105242;269;39520;-71
2023/05/06 02:29:06;;;;;;;5.50;3.80;;;;;;;5.84;54.27;101307.45;105788;279;38580;-72
2023/05/06 02:31:44;;;;;;;5.80;3.40;;;;;;;5.83;54.31;101310.05;105247;280;38863;-72
2023/05/06 02:34:24;;;;;;;8.90;3.60;;;;;;;5.81;54.29;101304.86;105797;279;38565;-73
2023/05/06 02:37:00;;;;;;;5.70;3.80;;;;;;;5.79;54.20;101298.83;105360;279;39436;-73
2023/05/06 02:39:34;;;;;;;6.40;3.40;;;;;;;5.77;54.14;101296.05;105809;279;39447;-73
2023/05/06 02:42:10;;;;;;;7.60;3.30;;;;;;;5.76;54.10;101290.17;105371;279;39395;-74
2023/05/06 02:44:45;;;;;;;4.00;3.40;;;;;;;5.73;54.14;101287.58;105807;279;39033;-73
2023/05/06 02:47:20;;;;;;;5.20;3.60;;;;;;;5.70;54.10;101288.81;105259;279;38225;-73
2023/05/06 02:49:56;;;;;;;6.60;3.20;;;;;;;5.70;54.18;101288.30;105381;279;38772;-73
2023/05/06 02:52:33;;;;;;;6.80;3.70;;;;;;;5.70;54.19;101285.00;105336;279;39672;-73
2023/05/06 02:55:10;;;;;;;7.20;3.50;;;;;;;5.68;54.20;101283.79;105349;279;38688;-73
2023/05/06 02:57:46;;;;;;;5.20;3.30;;;;;;;5.67;54.13;101280.34;105358;279;40124;-73
2023/05/06 03:00:24;;;;;;;6.70;3.40;;;;;;;5.69;54.19;101279.98;105337;275;39237;-71
2023/05/06 03:03:00;;;;;;;7.60;3.40;;;;;;;5.69;54.28;101283.61;105368;279;38451;-72
2023/05/06 03:05:35;;;;;;;5.80;3.60;;;;;;;5.70;54.25;101290.88;105366;279;38222;-71
2023/05/06 03:08:12;;;;;;;5.20;3.20;;;;;;;5.72;54.23;101293.31;105332;279;38011;-71
2023/05/06 03:10:47;;;;;;;6.30;3.40;;;;;;;5.73;54.30;101289.48;105275;279;38542;-70
2023/05/06 03:13:34;;;;;;;5.10;3.10;;;;;;;5.74;54.23;101294.69;105222;279;40468;-70
2023/05/06 03:16:14;;;;;;;4.90;3.20;;;;;;;5.75;54.25;101299.35;105337;279;39887;-70
2023/05/06 03:18:49;;;;;;;9.40;3.20;;;;;;;5.78;54.13;101300.73;105356;279;39637;-71
2023/05/06 03:21:25;;;;;;;4.70;3.10;;;;;;;5.80;54.11;101303.83;105786;279;38267;-71
2023/05/06 03:24:00;;;;;;;6.90;3.60;;;;;;;5.84;54.08;101302.78;105228;279;38112;-71
2023/05/06 03:26:37;;;;;;;6.80;3.50;;;;;;;5.86;54.12;101307.27;105337;279;38330;-72
2023/05/06 03:29:14;;;;;;;6.50;3.50;;;;;;;5.89;54.04;101307.61;105311;279;38944;-72
2023/05/06 03:31:50;;;;;;;4.70;3.10;;;;;;;5.91;54.03;101303.66;105797;279;38793;-72
2023/05/06 03:34:27;;;;;;;4.80;3.50;;;;;;;5.94;54.03;101305.72;105243;279;174744;-72
2023/05/06 03:37:01;;;;;;;3.80;3.10;;;;;;;5.96;54.06;101304.51;105775;279;38329;-72
2023/05/06 03:39:36;;;;;;;5.10;3.20;;;;;;;5.96;54.00;101308.15;105797;272;39971;-71
2023/05/06 03:42:12;;;;;;;5.10;3.20;;;;;;;5.97;54.00;101306.23;105801;279;39134;-71
2023/05/06 03:44:49;;;;;;;7.80;3.20;;;;;;;5.99;54.06;101312.11;105160;280;903506;-71
2023/05/06 03:47:24;;;;;;;4.10;2.90;;;;;;;6.03;54.05;101313.65;105786;279;40271;-72
2023/05/06 03:49:59;;;;;;;8.40;3.40;;;;;;;6.06;54.10;101313.12;105310;279;38437;-72
2023/05/06 03:52:37;;;;;;;7.70;3.30;;;;;;;6.10;54.05;101315.52;105367;279;38287;-72
2023/05/06 03:55:13;;;;;;;5.10;3.10;;;;;;;6.13;54.08;101312.92;105371;279;38280;-71
2023/05/06 03:57:47;;;;;;;4.80;3.20;;;;;;;6.15;54.15;101313.42;105353;279;38874;-71
2023/05/06 04:00:25;;;;;;;4.30;3.20;;;;;;;6.18;54.16;101315.50;105806;279;39822;-71
2023/05/06 04:03:00;;;;;;;3.90;3.10;;;;;;;6.23;54.23;101312.02;105349;280;39189;-72
2023/05/06 04:05:35;;;;;;;5.90;3.10;;;;;;;6.25;54.30;101315.64;105385;279;39582;-71
2023/05/06 04:08:12;;;;;;;5.00;3.00;;;;;;;6.26;54.22;101310.26;105390;279;38410;-71
2023/05/06 04:10:51;;;;;;;6.30;3.40;;;;;;;6.27;54.17;101311.98;105779;279;39939;-71
2023/05/06 04:13:27;;;;;;;6.40;3.70;;;;;;;6.28;54.30;101309.73;105395;279;38438;-71
2023/05/06 04:16:07;;;;;;;9.00;3.40;;;;;;;6.30;54.46;101310.05;105359;279;38474;-72
2023/05/06 04:18:42;;;;;;;6.00;3.60;;;;;;;6.34;54.48;101309.86;105377;279;38092;-71
2023/05/06 04:21:21;;;;;;;8.00;3.20;;;;;;;6.39;54.53;101301.16;105356;279;39651;-71
2023/05/06 04:23:59;;;;;;;5.80;3.00;;;;;;;6.43;54.44;101299.94;105378;279;38717;-71
2023/05/06 04:26:37;;;;;;;4.60;3.40;;;;;;;6.46;54.45;101294.37;105792;279;39731;-71
2023/05/06 04:29:12;;;;;;;6.50;3.10;;;;;;;6.50;54.49;101295.72;105391;279;38469;-71
2023/05/06 04:31:48;;;;;;;7.00;3.20;;;;;;;6.54;54.53;101295.69;105379;279;38434;-71
2023/05/06 04:34:23;;;;;;;5.50;3.30;;;;;;;6.55;54.54;101300.73;105372;279;38397;-71
2023/05/06 04:36:58;;;;;;;3.30;2.70;;;;;;;6.57;54.73;101300.70;105218;279;174695;-71
2023/05/06 04:39:35;;;;;;;5.50;3.20;;;;;;;6.60;54.79;101303.98;105705;279;174637;-71
2023/05/06 04:42:11;;;;;;;5.60;3.20;;;;;;;6.63;54.67;101306.20;105808;279;39274;-71
2023/05/06 04:44:51;;;;;;;5.40;3.40;;;;;;;6.68;54.69;101308.78;105391;279;38495;-71
2023/05/06 04:47:26;;;;;;;7.30;3.50;;;;;;;6.69;54.98;101302.00;105786;279;38838;-71
2023/05/06 04:50:00;;;;;;;6.60;2.90;;;;;;;6.75;54.92;101298.67;105243;279;40255;-71
2023/05/06 04:52:38;;;;;;;5.60;3.30;;;;;;;6.83;55.10;101297.22;105387;279;38377;-71
2023/05/06 04:55:13;;;;;;;5.30;3.70;;;;;;;6.88;55.06;101297.70;105802;279;39690;-71
2023/05/06 04:57:48;;;;;;;4.90;3.70;;;;;;;6.94;55.08;101294.17;105214;279;188915;-72
2023/05/06 05:00:25;;;;;;;8.00;3.80;;;;;;;7.00;55.13;101291.37;105342;279;39199;-71
2023/05/06 05:03:00;;;;;;;6.60;3.40;;;;;;;7.04;55.11;101292.19;105381;279;38505;-71
2023/05/06 05:05:36;;;;;;;7.90;3.30;;;;;;;7.07;55.23;101290.96;105813;279;38230;-71
2023/05/06 05:08:12;;;;;;;5.80;3.00;;;;;;;7.09;55.56;101290.23;105375;279;39695;-71
2023/05/06 05:10:50;;;;;;;8.00;3.60;;;;;;;7.11;55.53;101289.52;105777;279;39661;-72
2023/05/06 05:13:26;;;;;;;6.40;3.00;;;;;;;7.16;55.50;101288.45;105352;279;38925;-72
2023/05/06 05:16:03;;;;;;;8.00;3.30;;;;;;;7.22;55.61;101288.73;105386;279;38258;-71
2023/05/06 05:18:46;;;;;;;3.80;2.70;;;;;;;7.27;55.58;101283.48;105380;279;38490;-71
2023/05/06 05:21:28;;;;;;;4.30;3.10;;;;;;;7.33;55.71;101284.11;105345;279;38236;-72
2023/05/06 05:24:09;;;;;;;5.80;3.40;;;;;;;7.39;55.70;101287.35;105379;279;38503;-72
2023/05/06 05:26:44;;;;;;;4.90;3.20;;;;;;;7.46;55.62;101285.54;105823;279;39418;-72
2023/05/06 05:29:21;;;;;;;7.00;4.00;;;;;;;7.54;55.56;101285.11;105365;279;38239;-72
2023/05/06 05:31:55;;;;;;;5.20;3.50;;;;;;;7.59;55.66;101282.11;105771;279;38576;-72
2023/05/06 05:34:34;;;;;;;4.90;2.80;;;;;;;7.62;55.61;101279.46;105386;279;38487;-72
2023/05/06 05:37:11;;;;;;;5.30;2.90;;;;;;;7.65;55.56;101280.48;105799;280;38804;-72
2023/05/06 05:39:46;;;;;;;6.40;3.10;;;;;;;7.67;55.50;101276.11;105353;279;38720;-71
2023/05/06 05:42:23;;;;;;;5.00;3.40;;;;;;;7.71;55.77;101278.84;105362;283;38685;-71
2023/05/06 05:45:01;;;;;;;5.30;3.30;;;;;;;7.74;55.60;101275.69;105810;279;39951;-72
2023/05/06 05:47:40;;;;;;;4.50;3.30;;;;;;;7.78;55.75;101271.81;105792;279;39892;-72
2023/05/06 05:50:16;;;;;;;5.90;3.40;;;;;;;7.83;55.83;101271.58;105797;279;39952;-72
2023/05/06 05:52:51;;;;;;;6.10;3.50;;;;;;;7.89;55.93;101273.25;105334;279;37847;-72
2023/05/06 05:55:29;;;;;;;5.00;3.40;;;;;;;7.96;56.05;101273.49;105792;279;39567;-72
2023/05/06 05:58:04;;;;;;;4.70;3.20;;;;;;;8.04;56.03;101268.53;105354;275;39789;-72
2023/05/06 06:00:39;;;;;;;5.20;3.30;;;;;;;8.10;56.12;101267.94;105247;279;174533;-72
2023/05/06 06:03:14;;;;;;;4.30;3.50;;;;;;;8.14;56.20;101261.10;105800;279;38612;-72
2023/05/06 06:05:51;;;;;;;5.40;3.50;;;;;;;8.20;56.25;101259.96;105360;279;38832;-72
2023/05/06 06:08:32;;;;;;;5.30;3.80;;;;;;;8.25;56.01;101260.42;105362;283;38206;-72
2023/05/06 06:11:10;;;;;;;4.20;3.30;;;;;;;8.33;56.04;101257.18;105263;279;38953;-71
2023/05/06 06:13:44;;;;;;;4.90;3.00;;;;;;;8.41;55.88;101258.30;105360;287;38336;-71
2023/05/06 06:16:19;;;;;;;5.70;3.40;;;;;;;8.49;55.71;101259.23;105806;279;38798;-72
2023/05/06 06:18:54;;;;;;;6.30;3.20;;;;;;;8.59;55.75;101258.39;105361;279;39590;-72
2023/05/06 06:21:31;;;;;;;3.30;2.80;;;;;;;8.72;55.67;101256.60;105366;279;38582;-72
2023/05/06 06:24:08;;;;;;;6.60;3.50;;;;;;;8.87;55.55;101263.15;105374;279;38234;-71
2023/05/06 06:26:47;;;;;;;3.70;2.80;;;;;;;8.99;55.30;101261.55;105363;279;39502;-71
2023/05/06 06:29:21;;;;;;;5.50;3.10;;;;;;;9.11;54.89;101258.55;105370;279;38272;-72
2023/05/06 06:31:57;;;;;;;4.90;3.10;;;;;;;9.23;54.71;101264.26;105375;279;39392;-72
2023/05/06 06:34:33;;;;;;;5.10;3.40;;;;;;;9.30;54.57;101262.02;105337;279;38323;-71
2023/05/06 06:37:10;;;;;;;3.70;3.10;;;;;;;9.42;54.52;101259.04;105375;279;39586;-71
2023/05/06 06:39:45;;;;;;;3.80;3.00;;;;;;;9.51;54.20;101256.42;105268;279;40147;-72
2023/05/06 06:42:23;;;;;;;5.40;3.20;;;;;;;9.59;53.98;101258.88;105818;279;39541;-72
2023/05/06 06:44:57;;;;;;;4.70;3.00;;;;;;;9.70;53.92;101253.42;105796;279;39941;-71
2023/05/06 06:47:35;;;;;;;5.00;2.80;;;;;;;9.84;53.77;101249.84;105349;279;38311;-71
2023/05/06 06:50:12;;;;;;;8.00;3.90;;;;;;;9.99;53.47;101248.13;105328;279;38645;-72
2023/05/06 06:52:47;;;;;;;4.40;3.40;;;;;;;10.14;53.15;101242.39;105346;279;39650;-72
2023/05/06 06:55:23;;;;;;;3.50;2.70;;;;;;;10.27;53.01;101240.89;105809;279;38503;-72
2023/05/06 06:58:01;;;;;;;6.40;2.90;;;;;;;10.41;52.83;101237.63;105821;279;40129;-72
2023/05/06 07:00:35;;;;;;;11.20;5.10;;;;;;;10.57;52.65;101233.23;105341;279;38251;-71
2023/05/06 07:03:14;;;;;;;6.60;5.20;;;;;;;10.73;52.01;101232.66;105381;279;39320;-71
2023/05/06 07:05:51;;;;;;;7.90;4.10;;;;;;;10.89;51.80;101232.25;105359;279;38675;-72
2023/05/06 07:08:26;;;;;;;6.40;2.90;;;;;;;11.09;50.62;101227.03;105790;279;38489;-72
2023/05/06 07:11:03;;;;;;;4.70;2.60;;;;;;;11.19;49.20;101223.98;105256;280;39565;-72
2023/05/06 07:13:42;;;;;;;3.10;2.10;;;;;;;11.30;49.41;101218.42;105351;279;38272;-72
2023/05/06 07:16:16;;;;;;;6.20;2.10;;;;;;;11.42;47.69;101221.57;105340;279;38272;-72
2023/05/06 07:18:53;;;;;;;3.90;2.10;;;;;;;11.45;47.07;101223.08;105268;279;38817;-71
2023/05/06 07:21:31;;;;;;;3.00;1.90;;;;;;;11.50;46.59;101221.35;105252;279;38235;-71
2023/05/06 07:24:07;;;;;;;3.30;2.00;;;;;;;11.54;46.13;101218.79;105332;279;39747;-71
2023/05/06 07:26:43;;;;;;;3.00;1.90;;;;;;;11.59;46.32;101214.27;105323;279;39432;-71
2023/05/06 07:29:19;;;;;;;5.10;1.90;;;;;;;11.68;45.23;101214.39;105687;279;174362;-71
2023/05/06 07:31:54;;;;;;;4.10;1.90;;;;;;;11.71;45.26;101213.73;105788;279;38953;-72
2023/05/06 07:34:28;;;;;;;2.30;2.00;;;;;;;11.78;45.41;101216.55;105362;279;38239;-72
2023/05/06 07:37:06;;;;;;;2.00;1.80;;;;;;;11.82;45.22;101205.08;105340;279;38488;-72
2023/05/06 07:39:45;;;;;;;3.80;2.10;;;;;;;11.86;45.15;101204.23;105320;279;38899;-72
2023/05/06 07:42:22;;;;;;;10.10;2.30;;;;;;;11.89;44.43;101206.81;105222;279;39464;-72
2023/05/06 07:44:58;;;;;;;7.00;2.30;;;;;;;11.87;43.94;101206.67;105795;287;38240;-72
2023/05/06 07:47:33;;;;;;;5.30;2.10;;;;;;;11.85;44.28;101200.63;105340;279;40042;-72
2023/05/06 07:50:13;;;;;;;4.90;2.10;;;;;;;11.91;44.31;101200.45;105796;280;39248;-72
2023/05/06 07:52:48;;;;;;;2.20;1.70;;;;;;;11.94;44.00;101200.55;105803;279;38225;-72
2023/05/06 07:55:25;;;;;;;2.50;1.70;;;;;;;11.95;43.77;101203.13;105242;279;38899;-72
2023/05/06 07:58:03;;;;;;;6.50;2.40;;;;;;;11.96;43.50;101203.79;105351;279;39424;-72
2023/05/06 08:00:38;;;;;;;6.10;2.70;;;;;;;11.99;43.77;101204.08;105808;279;39223;-72
2023/05/06 08:03:15;;;;;;;4.10;1.80;;;;;;;12.05;43.60;101202.64;105368;280;38918;-72
2023/05/06 08:05:56;;;;;;;2.30;1.60;;;;;;;12.08;42.64;101203.94;105350;279;38660;-72
2023/05/06 08:08:33;;;;;;;3.40;1.70;;;;;;;12.10;42.84;101204.23;105329;279;39676;-72
2023/05/06 08:11:09;;;;;;;3.80;1.60;;;;;;;12.11;42.63;101203.13;105328;279;39656;-71
2023/05/06 08:13:43;;;;;;;3.30;1.80;;;;;;;12.14;42.53;101204.46;105367;279;39412;-71
2023/05/06 08:16:19;;;;;;;4.30;1.90;;;;;;;12.17;42.50;101203.67;105335;279;38486;-72
2023/05/06 08:18:56;;;;;;;5.80;1.90;;;;;;;12.24;42.63;101203.10;105349;279;38220;-72
2023/05/06 08:21:33;;;;;;;3.20;1.80;;;;;;;12.31;42.31;101198.66;105786;279;39671;-72
2023/05/06 08:24:09;;;;;;;3.80;1.80;;;;;;;12.35;42.53;101201.85;105337;279;39432;-72
2023/05/06 08:26:45;;;;;;;3.20;1.70;;;;;;;12.38;42.40;101197.94;105326;279;39382;-72
2023/05/06 08:29:20;;;;;;;4.30;1.70;;;;;;;12.39;42.26;101196.81;105770;279;38694;-72
2023/05/06 08:32:00;;;;;;;3.80;1.60;;;;;;;12.41;41.72;101200.45;105803;279;39905;-71
2023/05/06 08:34:34;;;;;;;4.40;1.80;;;;;;;12.38;41.74;101190.56;105357;279;38461;-72
2023/05/06 08:37:09;;;;;;;6.10;1.70;;;;;;;12.39;41.55;101195.77;105334;280;38795;-71
2023/05/06 08:39:45;;;;;;;3.70;1.70;;;;;;;12.35;41.18;101191.38;105369;279;38330;-72
2023/05/06 08:42:28;;;;;;;4.50;1.70;;;;;;;12.32;41.46;101194.09;105355;279;38361;-72
2023/05/06 08:45:07;;;;;;;4.90;2.00;;;;;;;12.31;41.55;101190.24;105366;279;38530;-72
2023/05/06 08:47:42;;;;;;;6.60;1.70;;;;;;;12.34;41.36;101190.87;105363;279;39400;-71
2023/05/06 08:50:18;;;;;;;2.80;1.80;;;;;;;12.32;40.97;101189.36;105828;279;38416;-72
2023/05/06 08:52:55;;;;;;;4.10;1.60;;;;;;;12.31;41.02;101192.18;105357;279;39676;-71
2023/05/06 08:55:29;;;;;;;3.70;1.40;;;;;;;12.33;40.88;101193.72;105826;283;38270;-72
2023/05/06 08:58:05;;;;;;;4.60;1.50;;;;;;;12.33;40.90;101190.38;105360;279;38256;-72
2023/05/06 09:00:39;;;;;;;4.80;1.40;;;;;;;12.37;40.46;101189.89;105363;279;39703;-72
2023/05/06 09:03:16;;;;;;;4.80;1.60;;;;;;;12.39;40.38;101190.38;105234;279;171792;-72
2023/05/06 09:05:50;;;;;;;5.20;1.80;;;;;;;12.41;40.43;101191.69;105807;279;39427;-72
2023/05/06 09:08:25;;;;;;;3.50;1.70;;;;;;;12.45;40.50;101189.27;105369;279;39500;-72
2023/05/06 09:11:02;;;;;;;3.10;2.00;;;;;;;12.53;40.60;101184.49;105363;279;38242;-71
2023/05/06 09:13:37;;;;;;;6.00;2.10;;;;;;;12.61;40.32;101186.83;105800;279;38487;-71
2023/05/06 09:16:15;;;;;;;3.40;1.50;;;;;;;12.69;40.20;101189.55;105379;279;38595;-72
2023/05/06 09:18:50;;;;;;;4.80;2.00;;;;;;;12.75;40.01;101189.16;105815;279;38238;-72
2023/05/06 09:21:35;;;;;;;4.10;1.50;;;;;;;12.80;39.77;101190.38;105352;279;38457;-72
2023/05/06 09:24:17;;;;;;;3.70;1.50;;;;;;;12.86;39.52;101184.08;105368;278;38458;-72
2023/05/06 09:26:53;;;;;;;4.30;1.80;;;;;;;12.91;39.33;101182.13;105783;279;40265;-72
2023/05/06 09:29:28;;;;;;;6.80;3.30;;;;;;;12.95;38.58;101178.70;105335;279;38249;-72
2023/05/06 09:32:07;;;;;;;4.00;2.60;;;;;;;12.93;38.29;101182.59;105798;279;38423;-72
2023/05/06 09:34:45;;;;;;;5.50;2.70;;;;;;;12.91;37.73;101181.26;105552;279;39559;-72
2023/05/06 09:37:20;;;;;;;6.00;3.70;;;;;;;12.86;37.54;101176.54;104603;279;919271;-71
2023/05/06 09:39:55;;;;;;;3.40;1.70;;;;;;;12.83;37.52;101176.80;105378;279;38231;-72
2023/05/06 09:42:30;;;;;;;3.90;1.40;;;;;;;12.76;37.30;101174.96;105362;279;38945;-72
2023/05/06 09:45:16;;;;;;;6.10;1.60;;;;;;;12.73;37.52;101177.16;105820;279;38926;-72
2023/05/06 09:47:52;;;;;;;8.30;4.60;;;;;;;12.70;37.59;101169.20;105802;279;39572;-72
2023/05/06 09:50:28;;;;;;;2.20;1.60;;;;;;;12.65;37.19;101179.16;105345;279;38417;-72
2023/05/06 09:53:03;;;;;;;3.20;1.40;;;;;;;12.58;37.05;101171.35;105369;279;38442;-72
2023/05/06 09:55:42;;;;;;;4.50;1.60;;;;;;;12.55;37.59;101169.90;105774;279;38703;-73
2023/05/06 09:58:17;;;;;;;;;;;;;;;12.54;37.20;101172.73;105366;279;39423;-73
2023/05/06 10:00:56;;;;;;;4.60;1.40;;;;;;;12.51;37.71;101170.90;105764;279;38409;-72
2023/05/06 10:03:33;;;;;;;4.00;1.70;;;;;;;12.59;37.55;101167.48;105363;279;38262;-72
2023/05/06 10:06:10;;;;;;;3.80;1.40;;;;;;;12.59;37.29;101170.61;105366;279;39724;-72
2023/05/06 10:08:46;;;;;;;3.80;1.60;;;;;;;12.58;36.82;101167.33;105395;272;38255;-72
2023/05/06 10:11:22;;;;;;;5.40;1.40;;;;;;;12.55;37.15;101169.55;105384;279;38632;-72
2023/05/06 10:14:01;;;;;;;7.20;1.60;;;;;;;12.54;37.13;101162.05;105381;280;38345;-72
2023/05/06 10:16:39;;;;;;;4.20;2.00;;;;;;;12.50;37.01;101159.73;105353;279;38448;-72
2023/05/06 10:19:14;;;;;;;3.80;1.30;;;;;;;12.45;36.86;101158.52;105772;279;38528;-72
2023/05/06 10:21:57;;;;;;;5.90;1.80;;;;;;;12.39;37.24;101156.95;105359;279;38266;-72
2023/05/06 10:24:46;;;;;;;4.50;1.80;;;;;;;12.32;37.00;101157.33;105319;279;39383;-72
2023/05/06 10:27:23;;;;;;;5.20;2.10;;;;;;;12.21;37.07;101157.02;105356;279;39417;-72
2023/05/06 10:30:02;;;;;;;6.50;1.70;;;;;;;12.15;37.81;101144.08;105360;279;38919;-72
2023/05/06 10:32:47;;;;;;;3.80;1.50;;;;;;;12.10;38.12;101144.77;105236;279;174326;-72
2023/05/06 10:35:38;;;;;;;3.80;1.80;;;;;;;12.02;38.45;101145.36;105245;279;40139;-73
2023/05/06 10:38:20;;;;;;;6.30;1.70;;;;;;;11.94;39.28;101145.45;105369;279;38505;-73
2023/05/06 10:40:55;;;;;;;6.20;1.50;;;;;;;11.87;39.94;101145.14;105296;279;39899;-71
2023/05/06 10:43:32;;;;;;;3.80;1.70;;;;;;;11.80;40.83;101141.66;105340;268;38955;-71
2023/05/06 10:46:08;;;;;;;5.70;1.70;;;;;;;11.75;41.28;101145.13;105359;279;39393;-72
2023/05/06 10:49:18;;;;;;;7.00;1.80;;;;;;;11.68;41.62;101139.90;105255;279;174476;-72
2023/05/06 10:52:12;;;;;;;2.90;2.00;;;;;;;11.54;42.32;101132.83;105793;279;38290;-72
2023/05/06 10:54:53;;;;;;;3.80;1.90;;;;;;;11.48;43.49;101133.89;105353;279;38784;-71
2023/05/06 10:57:29;;;;;;;3.20;1.70;;;;;;;11.47;43.99;101132.16;105674;279;174379;-71
2023/05/06 11:00:04;;;;;;;2.50;1.80;;;;;;;11.45;44.75;101128.19;105392;279;38266;-71
2023/05/06 11:02:41;;;;;;;4.30;1.70;;;;;;;11.40;44.51;101126.23;105371;279;39434;-71
2023/05/06 11:05:18;;;;;;;3.40;2.00;;;;;;;11.36;44.40;101128.10;105689;279;171823;-71
2023/05/06 11:07:55;;;;;;;2.80;1.70;;;;;;;11.30;44.95;101126.54;105318;283;39641;-71
2023/05/06 11:10:42;;;;;;;4.20;1.80;;;;;;;11.25;45.07;101128.08;105308;279;39716;-72
2023/05/06 11:13:32;;;;;;;4.10;1.70;;;;;;;11.22;45.21;101124.52;105345;279;39396;-72
2023/05/06 11:16:07;;;;;;;4.00;2.10;;;;;;;11.23;45.53;101121.68;105343;279;39655;-72
2023/05/06 11:18:52;;;;;;;4.50;1.70;;;;;;;11.26;46.21;101116.88;105341;279;39970;-71
2023/05/06 11:21:48;;;;;;;5.40;2.20;;;;;;;11.28;46.51;101116.29;105327;279;38406;-72
2023/05/06 11:24:38;;;;;;;3.80;1.80;;;;;;;11.26;46.61;101117.59;105335;279;38814;-72
2023/05/06 11:27:13;;;;;;;4.00;1.80;;;;;;;11.24;46.31;101122.00;105303;279;38247;-72
2023/05/06 11:29:49;;;;;;;1.70;1.60;;;;;;;11.22;46.43;101117.70;105760;279;39149;-72
2023/05/06 11:32:28;;;;;;;2.70;1.70;;;;;;;11.20;46.35;101122.80;105360;279;38312;-72
2023/05/06 11:35:02;;;;;;;4.30;1.60;;;;;;;11.18;46.28;101116.93;105331;279;38503;-72
2023/05/06 11:37:38;;;;;;;4.50;1.80;;;;;;;11.20;46.78;101122.65;105330;279;38275;-72
2023/05/06 11:40:19;;;;;;;4.80;2.00;;;;;;;11.20;46.56;101118.79;105094;279;188547;-71
2023/05/06 11:42:55;;;;;;;5.20;1.80;;;;;;;11.19;46.54;101124.41;105357;291;38293;-71
2023/05/06 11:45:49;;;;;;;4.50;2.00;;;;;;;11.16;45.97;101124.84;105342;279;39414;-71
2023/05/06 11:48:25;;;;;;;2.90;1.90;;;;;;;11.13;46.65;101125.29;105786;279;39590;-71
2023/05/06 11:50:59;;;;;;;3.60;1.70;;;;;;;11.11;46.76;101129.70;105349;279;39393;-71
2023/05/06 11:53:34;;;;;;;6.20;2.00;;;;;;;11.08;46.75;101130.65;105326;279;39260;-71
2023/05/06 11:56:13;;;;;;;6.60;2.50;;;;;;;11.05;46.86;101129.52;105361;279;38588;-72
2023/05/06 11:58:49;;;;;;;5.00;1.90;;;;;;;11.02;47.03;101127.50;105823;279;38591;-72
2023/05/06 12:01:25;;;;;;;2.90;1.80;;;;;;;11.03;47.57;101125.75;105306;287;38353;-72
2023/05/06 12:04:02;;;;;;;6.10;1.90;;;;;;;11.03;48.15;101132.00;105799;279;40194;-71
2023/05/06 12:06:54;;;;;;;6.20;2.00;;;;;;;11.00;47.89;101135.42;105805;279;38522;-71
2023/05/06 12:09:30;;;;;;;3.80;2.40;;;;;;;10.95;48.67;101134.16;105364;279;39037;-72
2023/05/06 12:12:08;;;;;;;4.60;2.30;;;;;;;10.95;48.87;101130.50;105233;279;38262;-72
2023/05/06 12:14:44;;;;;;;5.60;2.30;;;;;;;10.94;49.69;101132.27;105365;279;38464;-72
2023/05/06 12:17:21;;;;;;;5.70;2.10;;;;;;;10.94;50.17;101129.67;105785;279;38242;-72